Time;durP1;ratioP1;P1;durP2;ratioP2;P2;SDS_P1;SDS_P2;PMS_P1;PMS_P2;Temp;Humidity;BMP_temperature;BMP_pressure;BME280_temperature;BME280_humidity;BME280_pressure;Samples;Min_cycle;Max_cycle;Signal;HPM_P1;HPM_P2
2024/01/09 00:01:29;;;;;;;3.08;0.80;;;;;;;2.90;78.21;100926.25;5071859;28;20029;-67
2024/01/09 00:03:54;;;;;;;1.52;0.50;;;;;;;2.71;79.20;100921.31;5070346;28;20367;-67
2024/01/09 00:06:20;;;;;;;2.72;0.75;;;;;;;2.53;80.47;100923.13;5077866;28;20439;-67
2024/01/09 00:08:45;;;;;;;2.03;0.63;;;;;;;2.36;81.22;100936.06;5072913;28;20024;-67
2024/01/09 00:11:14;;;;;;;2.70;0.88;;;;;;;2.25;81.87;100921.19;5071600;28;20101;-67
2024/01/09 00:13:40;;;;;;;1.92;0.65;;;;;;;2.17;81.51;100930.22;5066840;28;20040;-67
2024/01/09 00:16:06;;;;;;;2.20;0.90;;;;;;;2.17;81.68;100941.34;5069335;28;20398;-67
2024/01/09 00:18:31;;;;;;;3.20;1.10;;;;;;;2.19;81.94;100954.09;5062814;28;20028;-66
2024/01/09 00:20:57;;;;;;;3.42;0.68;;;;;;;2.15;81.87;100957.75;5065597;28;20074;-67
2024/01/09 00:23:23;;;;;;;4.40;0.98;;;;;;;2.11;82.03;100961.38;5071924;28;20031;-67
2024/01/09 00:25:48;;;;;;;2.92;1.10;;;;;;;2.08;80.51;100961.53;5070020;28;20098;-66
2024/01/09 00:28:14;;;;;;;4.00;1.02;;;;;;;2.11;80.24;100959.63;5076712;28;20060;-67
2024/01/09 00:30:40;;;;;;;4.88;1.10;;;;;;;1.99;80.38;100978.25;5072060;28;20036;-67
2024/01/09 00:33:05;;;;;;;2.80;0.85;;;;;;;1.89;80.76;100974.50;5066623;28;20123;-67
2024/01/09 00:35:30;;;;;;;5.25;1.63;;;;;;;1.82;80.96;100970.56;5062068;28;20036;-67
2024/01/09 00:37:56;;;;;;;4.00;1.77;;;;;;;1.76;81.34;100981.16;5076517;28;20024;-67
2024/01/09 00:40:22;;;;;;;3.88;1.38;;;;;;;1.72;82.08;100979.63;5070923;28;20063;-67
2024/01/09 00:42:47;;;;;;;5.00;1.23;;;;;;;1.62;82.26;100979.25;5068803;28;20020;-67
2024/01/09 00:45:13;;;;;;;3.33;0.95;;;;;;;1.51;80.26;100976.38;5071640;28;20040;-67
2024/01/09 00:47:38;;;;;;;3.97;1.25;;;;;;;1.50;81.83;100988.38;5071450;28;20035;-67
2024/01/09 00:50:04;;;;;;;2.75;1.13;;;;;;;1.43;82.85;100989.56;5068900;28;20021;-66
2024/01/09 00:52:29;;;;;;;3.50;1.10;;;;;;;1.46;80.55;100984.28;5066646;28;20033;-67
2024/01/09 00:54:55;;;;;;;4.22;0.90;;;;;;;1.57;81.59;100984.59;5072690;28;20041;-67
2024/01/09 00:57:20;;;;;;;4.07;1.17;;;;;;;1.56;82.63;100976.97;5073249;28;20119;-67
2024/01/09 00:59:46;;;;;;;3.42;1.40;;;;;;;1.48;82.85;100972.22;5070246;28;20032;-67
2024/01/09 01:02:11;;;;;;;4.03;1.17;;;;;;;1.54;82.30;100977.06;5070693;28;20032;-67
2024/01/09 01:04:38;;;;;;;2.05;0.65;;;;;;;1.56;82.60;100975.25;5069161;28;20028;-67
2024/01/09 01:07:04;;;;;;;2.65;0.80;;;;;;;1.59;82.32;100971.69;5068337;28;20543;-67
2024/01/09 01:09:29;;;;;;;3.67;0.90;;;;;;;1.58;82.51;100978.56;5066398;28;20040;-66
2024/01/09 01:11:55;;;;;;;1.90;0.60;;;;;;;1.58;82.56;100970.88;5067885;28;20020;-67
2024/01/09 01:14:21;;;;;;;2.95;1.05;;;;;;;1.58;82.68;100973.44;5066455;28;20089;-67
2024/01/09 01:16:47;;;;;;;3.63;1.00;;;;;;;1.61;82.85;100965.56;5068601;28;20063;-67
2024/01/09 01:19:12;;;;;;;3.38;0.90;;;;;;;1.62;76.62;100990.34;5069173;28;20032;-66
2024/01/09 01:21:37;;;;;;;4.65;1.63;;;;;;;1.67;79.16;100996.09;5071214;28;20039;-67
2024/01/09 01:24:03;;;;;;;2.80;0.80;;;;;;;1.69;80.97;101005.47;5069696;28;20043;-66
2024/01/09 01:26:29;;;;;;;3.65;1.23;;;;;;;1.65;81.21;101009.94;5067851;28;20033;-66
2024/01/09 01:28:55;;;;;;;4.25;0.98;;;;;;;1.61;81.83;101018.69;5068063;28;20044;-67
2024/01/09 01:31:20;;;;;;;3.30;1.23;;;;;;;1.58;82.09;101011.13;5072805;28;20035;-67
2024/01/09 01:33:47;;;;;;;3.85;1.40;;;;;;;1.47;82.83;101008.22;5066298;28;20044;-66
2024/01/09 01:36:14;;;;;;;4.30;1.60;;;;;;;1.41;81.15;101017.09;5069651;28;20040;-66
2024/01/09 01:38:40;;;;;;;4.10;1.05;;;;;;;1.33;83.32;101011.47;5069125;28;20033;-67
2024/01/09 01:41:05;;;;;;;4.38;1.42;;;;;;;1.25;79.63;101021.28;5072753;28;20077;-67
2024/01/09 01:43:31;;;;;;;3.30;1.08;;;;;;;1.22;81.77;101006.84;5070567;28;20047;-66
2024/01/09 01:45:56;;;;;;;3.47;1.08;;;;;;;1.24;80.72;101015.31;5067507;28;20032;-67
2024/01/09 01:48:22;;;;;;;3.92;1.63;;;;;;;1.41;80.45;101014.53;5069716;28;20029;-66
2024/01/09 01:50:49;;;;;;;2.80;0.90;;;;;;;1.43;80.66;100999.84;5069602;28;20031;-66
2024/01/09 01:53:14;;;;;;;5.78;1.75;;;;;;;1.32;78.48;101008.09;5064903;28;20111;-67
2024/01/09 01:55:40;;;;;;;4.45;1.17;;;;;;;1.30;80.84;101004.75;5067387;28;20120;-67
2024/01/09 01:58:06;;;;;;;2.95;1.23;;;;;;;1.28;78.26;101010.88;5069382;28;20470;-67
2024/01/09 02:00:32;;;;;;;4.28;1.60;;;;;;;1.32;78.35;101005.50;5068937;28;20604;-66
2024/01/09 02:02:57;;;;;;;2.13;1.27;;;;;;;1.35;74.91;101007.09;5063417;28;20031;-66
2024/01/09 02:05:25;;;;;;;3.40;1.27;;;;;;;1.36;80.08;100998.50;5065725;28;20033;-67
2024/01/09 02:07:53;;;;;;;4.30;1.50;;;;;;;1.20;79.05;101010.38;5070399;28;20410;-66
2024/01/09 02:10:22;;;;;;;4.97;1.80;;;;;;;1.14;79.37;101026.06;5071391;28;20028;-67
2024/01/09 02:12:47;;;;;;;3.30;1.00;;;;;;;1.08;80.95;101010.94;5060988;28;20028;-66
2024/01/09 02:15:13;;;;;;;4.03;1.30;;;;;;;1.01;81.65;101002.69;5061404;28;20118;-67
2024/01/09 02:17:38;;;;;;;4.28;1.98;;;;;;;0.97;82.99;101011.44;5067397;28;20032;-66
2024/01/09 02:20:08;;;;;;;5.05;1.73;;;;;;;0.94;83.00;101009.03;5062308;28;20036;-67
2024/01/09 02:22:34;;;;;;;7.43;1.65;;;;;;;0.90;78.44;101028.88;5056515;28;20134;-66
2024/01/09 02:25:00;;;;;;;3.90;1.83;;;;;;;0.99;80.97;101015.59;5065992;28;20569;-66
2024/01/09 02:27:43;;;;;;;5.88;1.40;;;;;;;0.94;81.77;101009.88;5067385;28;20024;-66
2024/01/09 02:30:10;;;;;;;4.43;0.95;;;;;;;0.96;80.68;101013.16;5073768;28;20046;-67
2024/01/09 02:32:36;;;;;;;2.45;0.93;;;;;;;0.94;82.04;101015.00;5065715;28;20028;-66
2024/01/09 02:35:02;;;;;;;5.50;1.38;;;;;;;0.90;83.39;101000.66;5070475;28;20036;-67
2024/01/09 02:37:27;;;;;;;3.30;1.15;;;;;;;0.89;83.60;101005.84;5069238;28;20043;-67
2024/01/09 02:39:57;;;;;;;3.53;1.23;;;;;;;0.80;83.45;101012.22;5070652;28;20036;-66
2024/01/09 02:42:22;;;;;;;5.22;1.52;;;;;;;0.75;84.33;101008.19;5069013;28;20599;-66
2024/01/09 02:44:47;;;;;;;4.05;1.13;;;;;;;0.76;83.31;101022.69;5074798;28;20036;-67
2024/01/09 02:47:13;;;;;;;3.28;1.02;;;;;;;0.77;83.99;101009.78;5068737;28;20036;-66
2024/01/09 02:49:38;;;;;;;4.50;1.15;;;;;;;0.77;83.35;101009.78;5072846;28;20040;-66
2024/01/09 02:52:04;;;;;;;5.43;1.50;;;;;;;0.78;84.22;100998.63;5067143;28;20046;-66
2024/01/09 02:54:29;;;;;;;3.17;1.13;;;;;;;0.81;82.16;101011.31;5065468;28;20040;-66
2024/01/09 02:56:55;;;;;;;2.67;1.17;;;;;;;0.85;82.53;101009.44;5067678;28;20025;-66
2024/01/09 02:59:20;;;;;;;5.10;1.90;;;;;;;0.77;83.22;100991.84;5063254;28;20029;-66
2024/01/09 03:01:45;;;;;;;3.42;1.42;;;;;;;0.80;77.80;101009.66;5068663;28;20082;-66
2024/01/09 03:04:11;;;;;;;6.53;1.88;;;;;;;0.91;78.94;101010.00;5067253;28;20031;-68
2024/01/09 03:06:36;;;;;;;3.47;1.35;;;;;;;1.05;79.23;101008.53;5069036;28;20165;-67
2024/01/09 03:09:02;;;;;;;7.03;1.33;;;;;;;1.08;79.40;101014.34;5073231;28;20027;-68
2024/01/09 03:11:28;;;;;;;6.70;0.93;;;;;;;1.08;78.99;101003.25;5068886;28;20482;-68
2024/01/09 03:13:53;;;;;;;3.22;1.20;;;;;;;1.08;79.05;101000.69;5070082;28;20025;-67
2024/01/09 03:16:19;;;;;;;4.68;1.27;;;;;;;1.01;80.96;100997.56;5071111;28;20036;-67
2024/01/09 03:18:44;;;;;;;5.60;1.45;;;;;;;0.93;82.40;101005.63;5073489;28;20024;-68
2024/01/09 03:21:12;;;;;;;3.78;1.20;;;;;;;0.87;82.33;101007.66;5075102;28;20446;-68
2024/01/09 03:23:38;;;;;;;5.13;1.63;;;;;;;0.84;82.41;101000.94;5076767;28;20078;-67
2024/01/09 03:26:04;;;;;;;4.25;1.20;;;;;;;0.78;79.46;101020.88;5069861;28;20575;-67
2024/01/09 03:28:29;;;;;;;4.20;1.80;;;;;;;0.79;80.60;101013.13;5071374;28;20029;-67
2024/01/09 03:30:55;;;;;;;2.92;1.27;;;;;;;0.84;81.73;101020.63;5071109;28;20028;-68
2024/01/09 03:33:20;;;;;;;4.85;1.00;;;;;;;0.75;81.50;101010.75;5071622;28;20052;-67
2024/01/09 03:35:46;;;;;;;3.53;1.35;;;;;;;0.74;80.87;101019.34;5071780;28;20366;-68
2024/01/09 03:38:12;;;;;;;4.88;1.77;;;;;;;0.75;81.71;101024.41;5076603;28;20132;-68
2024/01/09 03:40:38;;;;;;;3.38;1.35;;;;;;;0.84;81.68;101021.44;5069470;28;20060;-67
2024/01/09 03:43:06;;;;;;;2.50;1.10;;;;;;;0.92;81.12;101018.53;5068713;28;20036;-67
2024/01/09 03:45:31;;;;;;;3.17;1.13;;;;;;;0.94;82.14;101011.59;5072448;28;20453;-67
2024/01/09 03:47:57;;;;;;;4.88;1.13;;;;;;;0.84;82.10;101026.56;5071734;28;20103;-67
2024/01/09 03:50:22;;;;;;;4.70;1.17;;;;;;;0.77;81.49;101035.44;5074699;28;20515;-67
2024/01/09 03:52:48;;;;;;;3.17;0.90;;;;;;;0.75;81.45;101031.28;5067150;28;20522;-68
2024/01/09 03:55:15;;;;;;;5.10;1.73;;;;;;;0.75;80.82;101031.28;5062103;28;20064;-65
2024/01/09 03:57:41;;;;;;;4.32;1.35;;;;;;;0.81;80.92;101036.16;5062739;28;20041;-65
2024/01/09 04:00:07;;;;;;;4.47;1.40;;;;;;;0.74;81.79;101030.44;5062288;28;20043;-68
2024/01/09 04:02:33;;;;;;;4.30;1.95;;;;;;;0.76;81.12;101036.34;5069278;28;20032;-67
2024/01/09 04:04:58;;;;;;;3.63;1.13;;;;;;;0.80;80.56;101039.59;5073945;28;20755;-68
2024/01/09 04:07:23;;;;;;;6.82;1.60;;;;;;;0.75;80.25;101051.81;5074032;28;20033;-67
2024/01/09 04:09:49;;;;;;;3.70;1.20;;;;;;;0.69;81.28;101064.91;5071414;28;20055;-67
2024/01/09 04:12:15;;;;;;;3.65;1.20;;;;;;;0.57;81.99;101051.69;5066478;28;20100;-68
2024/01/09 04:14:40;;;;;;;4.70;1.23;;;;;;;0.55;80.68;101052.66;5071484;28;20036;-67
2024/01/09 04:17:05;;;;;;;7.00;1.08;;;;;;;0.50;81.55;101063.13;5071680;28;20577;-67
2024/01/09 04:19:31;;;;;;;4.70;1.67;;;;;;;0.43;82.62;101050.66;5069066;28;20039;-67
2024/01/09 04:21:56;;;;;;;5.28;1.75;;;;;;;0.39;77.21;101065.31;5066559;28;20358;-67
2024/01/09 04:24:22;;;;;;;5.30;1.58;;;;;;;0.62;78.51;101062.59;5074567;28;20024;-67
2024/01/09 04:26:47;;;;;;;4.45;1.55;;;;;;;0.63;80.26;101077.09;5071656;28;20385;-68
2024/01/09 04:29:13;;;;;;;3.60;1.05;;;;;;;0.72;80.41;101065.59;5075056;28;20059;-67
2024/01/09 04:31:38;;;;;;;3.78;1.15;;;;;;;0.75;81.02;101062.91;5071373;28;20135;-67
2024/01/09 04:34:03;;;;;;;6.50;1.60;;;;;;;0.64;79.96;101077.91;5067057;28;20029;-68
2024/01/09 04:36:29;;;;;;;5.75;1.75;;;;;;;0.61;80.79;101070.34;5064360;28;20153;-67
2024/01/09 04:39:00;;;;;;;3.92;1.08;;;;;;;0.56;82.50;101064.59;5074080;28;20044;-67
2024/01/09 04:41:25;;;;;;;2.53;0.90;;;;;;;0.53;81.55;101062.16;5074756;28;20472;-67
2024/01/09 04:43:51;;;;;;;6.32;1.67;;;;;;;0.52;82.18;101071.56;5067937;28;20085;-67
2024/01/09 04:46:16;;;;;;;4.45;1.80;;;;;;;0.51;79.46;101090.41;5077156;28;20032;-68
2024/01/09 04:48:41;;;;;;;7.20;0.95;;;;;;;0.56;81.15;101082.53;5075425;28;20082;-68
2024/01/09 04:51:07;;;;;;;7.82;1.25;;;;;;;0.65;80.99;101079.59;5069491;28;20075;-67
2024/01/09 04:53:33;;;;;;;3.70;1.55;;;;;;;0.60;79.49;101091.75;5073060;28;20525;-68
2024/01/09 04:55:58;;;;;;;6.75;1.65;;;;;;;0.60;80.92;101079.78;5068219;28;20028;-67
2024/01/09 04:58:23;;;;;;;2.33;1.13;;;;;;;0.62;81.55;101097.66;5070032;28;20119;-67
2024/01/09 05:00:49;;;;;;;5.72;1.48;;;;;;;0.56;81.86;101095.34;5068132;28;20031;-67
2024/01/09 05:03:14;;;;;;;2.90;1.00;;;;;;;0.53;79.33;101100.63;5069808;28;20047;-68
2024/01/09 05:05:40;;;;;;;5.35;1.95;;;;;;;0.56;78.78;101098.75;5067218;28;20513;-67
2024/01/09 05:08:05;;;;;;;3.90;1.38;;;;;;;0.53;80.05;101106.56;5065563;28;20120;-68
2024/01/09 05:10:31;;;;;;;3.25;1.25;;;;;;;0.45;81.83;101105.25;5067208;28;20370;-68
2024/01/09 05:12:57;;;;;;;3.92;1.92;;;;;;;0.32;82.39;101120.31;5069640;28;20470;-67
2024/01/09 05:15:23;;;;;;;5.80;1.63;;;;;;;0.29;82.96;101116.16;5075348;28;20448;-67
2024/01/09 05:17:48;;;;;;;4.72;1.00;;;;;;;0.24;83.65;101114.66;5074297;28;20025;-71
2024/01/09 05:20:14;;;;;;;3.05;0.90;;;;;;;0.17;83.31;101111.50;5068633;28;20509;-66
2024/01/09 05:22:39;;;;;;;5.60;1.42;;;;;;;0.19;82.96;101122.53;5068404;28;20036;-66
2024/01/09 05:25:06;;;;;;;7.63;2.03;;;;;;;0.19;82.72;101104.59;5069310;28;20037;-66
2024/01/09 05:27:32;;;;;;;5.22;1.40;;;;;;;0.25;77.80;101119.72;5066001;28;20444;-66
2024/01/09 05:29:58;;;;;;;3.58;1.23;;;;;;;0.47;79.79;101112.00;5067646;28;20163;-66
2024/01/09 05:32:24;;;;;;;4.90;1.40;;;;;;;0.39;81.00;101116.59;5067152;28;20665;-66
2024/01/09 05:34:49;;;;;;;4.03;1.48;;;;;;;0.27;81.35;101120.50;5073038;28;20040;-66
2024/01/09 05:37:15;;;;;;;6.55;1.83;;;;;;;0.16;82.29;101125.22;5071441;28;20040;-66
2024/01/09 05:39:43;;;;;;;6.45;1.70;;;;;;;0.10;81.24;101129.75;5073724;28;20095;-66
2024/01/09 05:42:08;;;;;;;7.05;2.45;;;;;;;0.05;79.51;101132.50;5070584;28;20048;-66
2024/01/09 05:44:34;;;;;;;6.38;1.67;;;;;;;0.12;81.58;101131.38;5067930;28;20051;-66
2024/01/09 05:47:00;;;;;;;5.95;1.48;;;;;;;0.12;82.99;101138.22;5066865;28;20107;-66
2024/01/09 05:49:25;;;;;;;4.50;1.70;;;;;;;0.14;82.07;101142.38;5068170;28;20214;-66
2024/01/09 05:51:51;;;;;;;5.57;1.70;;;;;;;0.32;82.00;101146.78;5067973;28;20028;-66
2024/01/09 05:54:17;;;;;;;6.55;2.25;;;;;;;0.34;82.42;101154.41;5068607;28;20047;-67
2024/01/09 05:56:43;;;;;;;4.70;1.70;;;;;;;0.33;80.65;101157.88;5069105;28;20033;-66
2024/01/09 05:59:08;;;;;;;5.35;2.13;;;;;;;0.42;80.50;101165.19;5066858;28;20135;-66
2024/01/09 06:01:33;;;;;;;5.38;1.63;;;;;;;0.37;81.38;101151.72;5066002;28;20045;-66
2024/01/09 06:03:59;;;;;;;5.45;2.28;;;;;;;0.30;78.81;101169.06;5066135;28;20029;-66
2024/01/09 06:06:24;;;;;;;6.95;1.90;;;;;;;0.25;80.92;101188.94;5068255;28;20035;-66
2024/01/09 06:08:50;;;;;;;5.28;1.75;;;;;;;0.28;79.78;101170.03;5069617;28;20029;-66
2024/01/09 06:11:15;;;;;;;5.32;1.15;;;;;;;0.24;80.81;101176.19;5067003;28;20027;-67
2024/01/09 06:13:41;;;;;;;11.27;2.75;;;;;;;0.22;81.43;101183.94;5068449;28;20119;-67
2024/01/09 06:16:07;;;;;;;7.47;1.80;;;;;;;0.19;82.13;101176.34;5069296;28;20115;-67
2024/01/09 06:18:33;;;;;;;9.15;2.03;;;;;;;0.15;83.44;101189.34;5068737;28;20036;-66
2024/01/09 06:20:59;;;;;;;7.00;2.53;;;;;;;0.06;83.75;101185.41;5069435;28;20036;-67
2024/01/09 06:23:24;;;;;;;6.07;2.58;;;;;;;-0.05;81.67;101200.41;5068532;28;20051;-66
2024/01/09 06:25:50;;;;;;;3.15;1.83;;;;;;;-0.08;83.78;101203.06;5062285;28;20489;-67
2024/01/09 06:28:16;;;;;;;7.43;1.98;;;;;;;-0.09;82.86;101206.53;5069969;28;20028;-67
2024/01/09 06:30:41;;;;;;;8.98;2.20;;;;;;;-0.08;84.33;101214.16;5069237;28;20051;-67
2024/01/09 06:33:07;;;;;;;5.05;1.40;;;;;;;-0.11;84.57;101205.75;5069236;28;20037;-66
2024/01/09 06:35:33;;;;;;;5.78;1.48;;;;;;;-0.12;81.88;101222.84;5070557;28;20048;-66
2024/01/09 06:37:58;;;;;;;4.28;1.52;;;;;;;-0.05;80.47;101236.25;5069559;28;20171;-67
2024/01/09 06:40:24;;;;;;;5.20;1.42;;;;;;;-0.04;83.36;101232.81;5068378;28;20041;-66
2024/01/09 06:42:51;;;;;;;6.50;2.28;;;;;;;-0.12;84.64;101224.56;5067846;28;20111;-66
2024/01/09 06:45:16;;;;;;;7.50;2.13;;;;;;;-0.15;83.31;101245.19;5068938;28;20024;-67
2024/01/09 06:47:42;;;;;;;6.90;2.13;;;;;;;-0.17;83.33;101234.16;5068136;28;20033;-66
2024/01/09 06:50:09;;;;;;;6.60;2.10;;;;;;;-0.19;83.57;101221.41;5069097;28;20573;-66
2024/01/09 06:52:34;;;;;;;8.05;1.80;;;;;;;-0.11;82.95;101249.31;5068597;28;20097;-66
2024/01/09 06:55:00;;;;;;;5.70;1.85;;;;;;;-0.02;82.22;101252.34;5069149;28;20024;-66
2024/01/09 06:57:25;;;;;;;4.65;1.13;;;;;;;0.05;81.73;101249.53;5066958;28;20179;-66
2024/01/09 06:59:51;;;;;;;4.63;2.00;;;;;;;0.20;81.72;101246.38;5067852;28;20028;-66
2024/01/09 07:02:17;;;;;;;7.50;3.03;;;;;;;0.30;80.66;101245.13;5069069;28;20028;-66
2024/01/09 07:04:42;;;;;;;8.43;2.03;;;;;;;0.32;78.68;101244.19;5067213;28;20512;-66
2024/01/09 07:07:08;;;;;;;4.60;1.42;;;;;;;0.33;80.54;101253.53;5068892;28;20339;-66
2024/01/09 07:09:33;;;;;;;5.30;1.48;;;;;;;0.31;81.40;101257.06;5068508;28;20033;-66
2024/01/09 07:11:59;;;;;;;8.20;2.13;;;;;;;0.29;81.51;101269.94;5068828;28;20097;-66
2024/01/09 07:14:24;;;;;;;6.25;2.08;;;;;;;0.27;81.81;101255.50;5066871;28;20016;-66
2024/01/09 07:16:50;;;;;;;6.60;2.45;;;;;;;0.28;78.31;101268.25;5068605;28;20599;-66
2024/01/09 07:19:15;;;;;;;5.57;2.42;;;;;;;0.37;79.98;101261.13;5068879;28;20032;-66
2024/01/09 07:21:41;;;;;;;4.65;1.83;;;;;;;0.38;76.71;101288.41;5068366;28;20040;-66
2024/01/09 07:24:06;;;;;;;6.57;1.88;;;;;;;0.51;77.21;101274.19;5068877;28;20081;-66
2024/01/09 07:26:37;;;;;;;8.48;2.13;;;;;;;0.53;77.25;101278.38;5068238;28;20043;-66
2024/01/09 07:29:02;;;;;;;5.03;1.98;;;;;;;0.53;74.06;101274.97;5068434;28;20115;-65
2024/01/09 07:31:28;;;;;;;5.45;1.30;;;;;;;0.66;75.55;101277.00;5066696;28;20097;-65
2024/01/09 07:33:55;;;;;;;5.63;2.13;;;;;;;0.68;78.10;101270.97;5068655;28;20409;-66
2024/01/09 07:36:20;;;;;;;8.40;2.63;;;;;;;0.58;79.68;101263.66;5068489;28;20048;-66
2024/01/09 07:38:46;;;;;;;5.55;2.03;;;;;;;0.53;79.03;101282.66;5066754;28;20474;-66
2024/01/09 07:41:12;;;;;;;7.53;2.55;;;;;;;0.57;79.60;101290.19;5068579;28;20039;-66
2024/01/09 07:43:37;;;;;;;6.63;2.47;;;;;;;0.63;80.42;101271.16;5064989;28;20028;-66
2024/01/09 07:46:03;;;;;;;7.80;2.58;;;;;;;0.68;80.00;101282.06;5064988;28;20039;-66
2024/01/09 07:48:28;;;;;;;12.88;3.00;;;;;;;0.68;80.58;101282.06;5068252;28;20106;-66
2024/01/09 07:50:56;;;;;;;8.35;3.58;;;;;;;0.70;80.97;101295.66;5069012;28;20531;-66
2024/01/09 07:53:21;;;;;;;7.15;2.58;;;;;;;0.84;78.65;101277.16;5065539;28;20040;-65
2024/01/09 07:55:47;;;;;;;5.55;2.47;;;;;;;0.95;79.37;101287.78;5068077;28;20493;-66
2024/01/09 07:58:12;;;;;;;6.47;2.58;;;;;;;1.03;79.46;101290.88;5068467;28;20081;-66
2024/01/09 08:00:38;;;;;;;6.18;2.15;;;;;;;1.09;77.16;101298.31;5066732;28;20044;-66
2024/01/09 08:03:05;;;;;;;8.43;2.05;;;;;;;1.11;79.93;101290.56;5070523;28;20155;-66
2024/01/09 08:05:30;;;;;;;7.57;1.80;;;;;;;1.12;79.82;101297.38;5071272;28;20067;-66
2024/01/09 08:07:56;;;;;;;5.28;1.85;;;;;;;1.10;80.44;101296.59;5071693;28;20442;-66
2024/01/09 08:10:21;;;;;;;7.10;2.38;;;;;;;1.15;77.87;101310.06;5071615;28;20048;-66
2024/01/09 08:12:46;;;;;;;4.70;2.58;;;;;;;1.19;79.79;101280.81;5071267;28;20028;-66
2024/01/09 08:15:12;;;;;;;7.85;2.13;;;;;;;1.29;76.69;101318.03;5070049;28;20048;-66
2024/01/09 08:17:37;;;;;;;5.28;2.08;;;;;;;1.51;78.15;101321.34;5069720;28;20132;-67
2024/01/09 08:20:03;;;;;;;9.75;2.58;;;;;;;1.66;75.50;101318.13;5070494;28;20037;-66
2024/01/09 08:22:29;;;;;;;2.97;1.33;;;;;;;1.68;77.82;101318.03;5071097;28;20032;-66
2024/01/09 08:24:54;;;;;;;5.13;1.75;;;;;;;1.69;78.78;101329.16;5071804;28;20492;-66
2024/01/09 08:27:19;;;;;;;6.28;2.50;;;;;;;1.65;78.84;101324.16;5071081;28;20032;-66
2024/01/09 08:29:45;;;;;;;6.32;2.40;;;;;;;1.73;76.55;101333.25;5070929;28;20038;-66
2024/01/09 08:32:15;;;;;;;4.70;1.90;;;;;;;1.84;77.12;101331.06;5070017;28;20048;-66
2024/01/09 08:34:40;;;;;;;4.90;1.58;;;;;;;1.95;73.42;101321.94;5066648;28;20129;-66
2024/01/09 08:37:06;;;;;;;8.23;2.10;;;;;;;2.05;76.32;101296.66;5071286;28;20059;-66
2024/01/09 08:39:31;;;;;;;5.60;1.70;;;;;;;2.12;70.93;101322.94;5070741;28;20032;-66
2024/01/09 08:41:56;;;;;;;4.30;1.70;;;;;;;2.25;74.96;101319.75;5071690;28;20031;-66
2024/01/09 08:44:25;;;;;;;6.82;2.08;;;;;;;2.20;75.61;101326.81;5071313;28;20035;-66
2024/01/09 08:46:50;;;;;;;3.85;1.92;;;;;;;2.16;77.05;101324.47;5069591;28;20039;-66
2024/01/09 08:49:16;;;;;;;5.78;1.42;;;;;;;2.15;78.00;101330.50;5069939;28;20036;-66
2024/01/09 08:51:41;;;;;;;5.90;2.17;;;;;;;2.16;78.39;101325.31;5070700;28;20389;-66
2024/01/09 08:54:07;;;;;;;5.57;1.83;;;;;;;2.21;78.24;101318.22;5070923;28;20059;-66
2024/01/09 08:56:33;;;;;;;3.55;1.80;;;;;;;2.27;76.95;101312.78;5069768;28;20024;-66
2024/01/09 08:58:58;;;;;;;6.03;1.60;;;;;;;2.32;77.46;101325.44;5070359;28;20496;-66
2024/01/09 09:01:25;;;;;;;5.10;1.83;;;;;;;2.40;76.90;101327.63;5070175;28;20111;-66
2024/01/09 09:03:51;;;;;;;7.03;1.75;;;;;;;2.44;77.48;101335.13;5071198;28;20024;-66
2024/01/09 09:06:18;;;;;;;5.07;1.15;;;;;;;2.53;76.52;101324.41;5069007;28;20032;-65
2024/01/09 09:08:43;;;;;;;4.28;1.80;;;;;;;2.57;77.42;101343.13;5069757;28;20043;-66
2024/01/09 09:11:10;;;;;;;7.32;2.00;;;;;;;2.61;77.45;101336.94;5070149;28;20029;-66
2024/01/09 09:13:36;;;;;;;6.30;1.88;;;;;;;2.66;77.94;101342.69;5082885;28;20040;-66
2024/01/09 09:16:01;;;;;;;3.72;1.42;;;;;;;2.67;77.34;101342.63;5070165;28;20024;-66
2024/01/09 09:18:27;;;;;;;3.45;1.23;;;;;;;2.69;77.04;101341.72;5069712;28;20082;-66
2024/01/09 09:20:53;;;;;;;8.20;1.88;;;;;;;2.68;78.20;101338.31;5070647;28;20078;-64
2024/01/09 09:23:18;;;;;;;6.13;1.35;;;;;;;2.70;77.17;101351.94;5070340;28;20063;-64
2024/01/09 09:25:43;;;;;;;4.40;1.38;;;;;;;2.78;77.26;101354.97;5069644;28;20363;-64
2024/01/09 09:28:09;;;;;;;7.20;1.38;;;;;;;2.87;76.71;101349.38;5070048;28;20488;-64
2024/01/09 09:30:34;;;;;;;5.10;1.63;;;;;;;2.90;77.37;101356.94;5069578;28;20032;-64
2024/01/09 09:33:00;;;;;;;5.35;1.88;;;;;;;2.91;76.49;101353.47;5068841;28;20067;-66
2024/01/09 09:35:25;;;;;;;5.45;1.25;;;;;;;2.96;77.00;101359.22;5069201;28;20458;-65
2024/01/09 09:37:50;;;;;;;3.50;1.30;;;;;;;3.00;75.99;101365.91;5068535;28;20162;-66
2024/01/09 09:40:16;;;;;;;5.50;1.30;;;;;;;3.05;76.60;101363.09;5063861;28;20035;-66
2024/01/09 09:42:42;;;;;;;4.18;1.58;;;;;;;3.08;76.32;101359.53;5065049;28;20044;-66
2024/01/09 09:45:13;;;;;;;7.45;1.35;;;;;;;3.08;76.84;101357.81;5066830;28;20517;-66
2024/01/09 09:47:39;;;;;;;4.78;1.42;;;;;;;3.10;77.05;101353.41;5069623;28;20125;-66
2024/01/09 09:50:09;;;;;;;3.72;1.45;;;;;;;3.18;76.67;101347.88;5068317;28;20153;-66
2024/01/09 09:52:38;;;;;;;5.05;1.10;;;;;;;3.32;69.94;101355.75;5067640;28;20033;-66
2024/01/09 09:55:04;;;;;;;6.05;1.35;;;;;;;3.55;66.92;101357.16;5069729;28;20082;-66
2024/01/09 09:57:30;;;;;;;7.03;1.30;;;;;;;3.63;71.32;101358.44;5069184;28;20044;-66
2024/01/09 09:59:55;;;;;;;4.82;1.67;;;;;;;3.55;73.60;101357.16;5069211;28;20077;-66
2024/01/09 10:02:26;;;;;;;4.65;1.33;;;;;;;3.43;73.97;101361.19;5069727;28;20066;-66
2024/01/09 10:04:52;;;;;;;3.55;1.35;;;;;;;3.38;73.92;101376.03;5068903;28;20029;-66
2024/01/09 10:07:22;;;;;;;7.07;1.55;;;;;;;3.52;68.95;101371.03;5068104;28;20040;-66
2024/01/09 10:09:53;;;;;;;7.40;1.55;;;;;;;3.61;74.08;101370.56;5068603;28;20044;-66
2024/01/09 10:12:22;;;;;;;3.92;1.33;;;;;;;3.54;74.88;101355.50;5069509;28;20083;-66
2024/01/09 10:15:04;;;;;;;3.17;1.23;;;;;;;3.48;73.38;101369.53;5068401;28;20035;-66
2024/01/09 10:17:29;;;;;;;5.65;1.20;;;;;;;3.51;74.97;101377.09;5064630;28;20040;-66
2024/01/09 10:19:55;;;;;;;3.67;0.70;;;;;;;3.53;74.31;101367.56;5069527;28;20077;-66
2024/01/09 10:22:20;;;;;;;4.55;0.88;;;;;;;3.56;73.28;101372.56;5069171;28;20036;-66
2024/01/09 10:24:46;;;;;;;2.97;0.93;;;;;;;3.64;75.02;101374.75;5068477;28;20119;-67
2024/01/09 10:27:11;;;;;;;4.90;1.33;;;;;;;3.69;74.74;101380.50;5068028;28;20048;-66
2024/01/09 10:29:43;;;;;;;3.72;1.33;;;;;;;3.71;75.45;101368.38;5068900;28;20082;-66
2024/01/09 10:32:13;;;;;;;2.47;1.17;;;;;;;3.72;74.93;101366.63;5069331;28;20105;-66
2024/01/09 10:34:38;;;;;;;4.85;1.48;;;;;;;3.75;75.10;101358.75;5066718;28;20123;-66
2024/01/09 10:37:07;;;;;;;3.33;1.00;;;;;;;3.77;75.98;101365.47;5069369;28;20077;-66
2024/01/09 10:39:33;;;;;;;4.22;0.98;;;;;;;3.79;75.32;101373.09;5065583;28;20063;-66
2024/01/09 10:42:07;;;;;;;24.50;2.53;;;;;;;3.81;74.27;101366.13;5069504;28;20132;-66
2024/01/09 10:44:32;;;;;;;5.82;1.20;;;;;;;3.84;75.24;101371.13;5066200;28;20085;-66
2024/01/09 10:46:59;;;;;;;3.75;1.27;;;;;;;3.85;75.93;101383.09;5068977;28;20457;-66
2024/01/09 10:49:25;;;;;;;3.22;0.73;;;;;;;3.86;75.78;101371.88;5068445;28;20044;-66
2024/01/09 10:51:52;;;;;;;3.85;1.25;;;;;;;3.90;76.01;101378.53;5067996;28;20040;-66
2024/01/09 10:54:20;;;;;;;3.90;1.00;;;;;;;3.93;75.61;101373.22;5068881;28;20124;-66
2024/01/09 10:56:47;;;;;;;4.78;1.30;;;;;;;4.00;74.83;101369.44;5068695;28;20435;-66
2024/01/09 10:59:14;;;;;;;6.85;1.58;;;;;;;4.03;75.27;101383.91;5068883;28;20046;-66
2024/01/09 11:01:40;;;;;;;3.90;0.75;;;;;;;4.02;75.07;101384.81;5068308;28;20043;-66
2024/01/09 11:04:07;;;;;;;4.68;1.27;;;;;;;4.00;75.07;101379.75;5068603;28;20029;-66
2024/01/09 11:06:35;;;;;;;3.85;1.67;;;;;;;4.00;72.95;101372.00;5066853;28;20079;-65
2024/01/09 11:09:04;;;;;;;3.75;1.00;;;;;;;4.03;74.77;101376.16;5069398;28;20024;-66
2024/01/09 11:11:32;;;;;;;3.00;0.90;;;;;;;4.11;73.32;101381.75;5068618;28;20560;-67
2024/01/09 11:14:06;;;;;;;7.60;1.27;;;;;;;4.17;73.19;101386.59;5069217;28;20490;-67
2024/01/09 11:16:38;;;;;;;4.47;1.33;;;;;;;4.24;73.84;101383.63;5066409;28;20036;-67
2024/01/09 11:19:06;;;;;;;3.10;1.00;;;;;;;4.25;73.35;101380.09;5069052;28;20509;-67
2024/01/09 11:21:32;;;;;;;5.00;1.13;;;;;;;4.23;73.92;101386.28;5066281;28;20630;-67
2024/01/09 11:24:00;;;;;;;2.20;0.90;;;;;;;4.19;73.05;101388.19;5068584;28;20032;-68
2024/01/09 11:26:31;;;;;;;2.95;0.70;;;;;;;4.22;73.72;101380.28;5068282;28;20036;-67
2024/01/09 11:28:59;;;;;;;2.88;1.10;;;;;;;4.24;71.11;101391.34;5068716;28;20426;-67